GLO1121 SBEG-SBSN
Flight info
| Callsign | GLO1121 |
|---|---|
| Flight time | 0h 53m |
| Altitude | 33000 |
| Route | XOLOK UZ81 TOBUX DCT STM |
| Aircraft | B737/M-SDE2E3FGHIRWXY/LB1 |
Departure
| Time | 2026-04-21 18:34 |
|---|---|
| Airport | Eduardo Gomes International Airport (SBEG) |
Arrival
| Time | 2026-04-21 19:27 |
|---|---|
| Airport | Santarém - Maestro Wilson Fonseca International Airport (SBSN) |
| Time | Latitude | Longitude | Altitude | Speed | Heading |
|---|---|---|---|---|---|
| 2026-04-21 18:05 | -3.03273 | -60.04581 | 267 ft | 0 kts | 357° |
| 2026-04-21 18:25 | -3.03290 | -60.04580 | 267 ft | 4 kts | 355° |
| 2026-04-21 18:26 | -3.03317 | -60.04577 | 267 ft | 4 kts | 347° |
| 2026-04-21 18:26 | -3.03342 | -60.04568 | 258 ft | 4 kts | 322° |
| 2026-04-21 18:26 | -3.03353 | -60.04552 | 272 ft | 2 kts | 265° |
| 2026-04-21 18:26 | -3.03353 | -60.04551 | 272 ft | 1 kts | 265° |
| 2026-04-21 18:30 | -3.03355 | -60.04568 | 272 ft | 5 kts | 265° |
| 2026-04-21 18:30 | -3.03356 | -60.04623 | 267 ft | 11 kts | 273° |
| 2026-04-21 18:30 | -3.03353 | -60.04712 | 267 ft | 15 kts | 264° |
| 2026-04-21 18:30 | -3.03404 | -60.04820 | 267 ft | 21 kts | 231° |
| 2026-04-21 18:31 | -3.03531 | -60.04929 | 267 ft | 28 kts | 228° |
| 2026-04-21 18:31 | -3.03611 | -60.05115 | 267 ft | 31 kts | 255° |
| 2026-04-21 18:31 | -3.03665 | -60.05317 | 267 ft | 29 kts | 255° |
| 2026-04-21 18:31 | -3.03691 | -60.05512 | 267 ft | 27 kts | 271° |
| 2026-04-21 18:32 | -3.03692 | -60.05697 | 267 ft | 26 kts | 270° |
| 2026-04-21 18:32 | -3.03691 | -60.05872 | 267 ft | 24 kts | 270° |
| 2026-04-21 18:32 | -3.03690 | -60.06032 | 267 ft | 23 kts | 270° |
| 2026-04-21 18:32 | -3.03740 | -60.06168 | 267 ft | 22 kts | 205° |
| 2026-04-21 18:33 | -3.03859 | -60.06126 | 269 ft | 21 kts | 95° |
| 2026-04-21 18:33 | -3.03859 | -60.05893 | 268 ft | 63 kts | 90° |
| 2026-04-21 18:33 | -3.03859 | -60.05221 | 266 ft | 127 kts | 90° |
| 2026-04-21 18:33 | -3.03862 | -60.04178 | 369 ft | 165 kts | 88° |
| 2026-04-21 18:34 | -3.03862 | -60.02998 | 924 ft | 175 kts | 88° |
| 2026-04-21 18:34 | -3.03860 | -60.01837 | 1788 ft | 160 kts | 89° |
| 2026-04-21 18:34 | -3.03877 | -60.00693 | 2413 ft | 165 kts | 91° |
| 2026-04-21 18:34 | -3.03917 | -59.99446 | 2681 ft | 193 kts | 91° |
| 2026-04-21 18:35 | -3.03949 | -59.98519 | 2864 ft | 210 kts | 91° |
| 2026-04-21 18:35 | -3.04022 | -59.96434 | 3167 ft | 242 kts | 92° |
| 2026-04-21 18:35 | -3.04083 | -59.94664 | 3488 ft | 264 kts | 92° |
| 2026-04-21 18:35 | -3.04145 | -59.92825 | 4312 ft | 264 kts | 92° |
| 2026-04-21 18:36 | -3.04208 | -59.90975 | 5116 ft | 267 kts | 92° |
| 2026-04-21 18:36 | -3.04270 | -59.89099 | 5851 ft | 273 kts | 92° |
| 2026-04-21 18:36 | -3.04333 | -59.87196 | 6651 ft | 275 kts | 92° |
| 2026-04-21 18:36 | -3.04397 | -59.85271 | 7434 ft | 279 kts | 93° |
| 2026-04-21 18:37 | -3.04462 | -59.83318 | 8289 ft | 283 kts | 93° |
| 2026-04-21 18:37 | -3.04527 | -59.81329 | 9116 ft | 289 kts | 93° |
| 2026-04-21 18:37 | -3.04594 | -59.79304 | 9943 ft | 293 kts | 93° |
| 2026-04-21 18:37 | -3.04662 | -59.77228 | 10448 ft | 310 kts | 93° |
| 2026-04-21 18:38 | -3.04737 | -59.74981 | 10659 ft | 335 kts | 93° |
| 2026-04-21 18:38 | -3.04815 | -59.72615 | 11224 ft | 345 kts | 93° |
| 2026-04-21 18:38 | -3.04894 | -59.70208 | 11979 ft | 348 kts | 93° |
| 2026-04-21 18:38 | -3.04979 | -59.67776 | 12765 ft | 352 kts | 93° |
| 2026-04-21 18:39 | -3.05066 | -59.65315 | 13514 ft | 357 kts | 92° |
| 2026-04-21 18:39 | -3.05154 | -59.62818 | 14205 ft | 361 kts | 92° |
| 2026-04-21 18:39 | -3.05243 | -59.60301 | 14930 ft | 363 kts | 93° |
| 2026-04-21 18:39 | -3.05332 | -59.57770 | 15689 ft | 365 kts | 91° |
| 2026-04-21 18:40 | -3.05422 | -59.55220 | 16392 ft | 369 kts | 91° |
| 2026-04-21 18:40 | -3.05512 | -59.52638 | 17046 ft | 374 kts | 91° |
| 2026-04-21 18:40 | -3.05573 | -59.50907 | 17493 ft | 377 kts | 91° |
| 2026-04-21 18:40 | -3.05695 | -59.47388 | 18385 ft | 381 kts | 91° |
| 2026-04-21 18:41 | -3.05789 | -59.44720 | 18964 ft | 385 kts | 91° |
| 2026-04-21 18:41 | -3.05882 | -59.42034 | 19519 ft | 388 kts | 91° |
| 2026-04-21 18:41 | -3.05977 | -59.39322 | 20081 ft | 392 kts | 91° |
| 2026-04-21 18:41 | -3.06073 | -59.36586 | 20629 ft | 395 kts | 91° |
| 2026-04-21 18:42 | -3.06169 | -59.33824 | 21168 ft | 399 kts | 91° |
| 2026-04-21 18:42 | -3.06267 | -59.31037 | 21693 ft | 402 kts | 91° |
| 2026-04-21 18:42 | -3.06364 | -59.28225 | 22177 ft | 407 kts | 91° |
| 2026-04-21 18:42 | -3.06463 | -59.25383 | 22684 ft | 410 kts | 91° |
| 2026-04-21 18:43 | -3.06563 | -59.22522 | 23206 ft | 412 kts | 91° |
| 2026-04-21 18:43 | -3.06663 | -59.19644 | 23659 ft | 415 kts | 91° |
| 2026-04-21 18:43 | -3.06763 | -59.16752 | 24068 ft | 418 kts | 91° |
| 2026-04-21 18:43 | -3.06864 | -59.13843 | 24505 ft | 419 kts | 92° |
| 2026-04-21 18:44 | -3.06966 | -59.10921 | 24947 ft | 420 kts | 92° |
| 2026-04-21 18:44 | -3.07067 | -59.07992 | 25374 ft | 422 kts | 92° |
| 2026-04-21 18:44 | -3.07169 | -59.05055 | 25789 ft | 424 kts | 92° |
| 2026-04-21 18:44 | -3.07271 | -59.02100 | 26203 ft | 426 kts | 91° |
| 2026-04-21 18:45 | -3.07374 | -58.99134 | 26621 ft | 427 kts | 91° |
| 2026-04-21 18:45 | -3.07476 | -58.96159 | 27025 ft | 429 kts | 92° |
| 2026-04-21 18:45 | -3.07579 | -58.93174 | 27412 ft | 431 kts | 92° |
| 2026-04-21 18:45 | -3.07683 | -58.90173 | 27798 ft | 433 kts | 92° |
| 2026-04-21 18:46 | -3.07787 | -58.87154 | 28184 ft | 435 kts | 92° |
| 2026-04-21 18:46 | -3.07891 | -58.84131 | 28567 ft | 436 kts | 92° |
| 2026-04-21 18:46 | -3.07995 | -58.81093 | 28937 ft | 438 kts | 92° |
| 2026-04-21 18:46 | -3.08100 | -58.78037 | 29295 ft | 440 kts | 92° |
| 2026-04-21 18:47 | -3.08205 | -58.74975 | 29640 ft | 442 kts | 92° |
| 2026-04-21 18:47 | -3.08311 | -58.71889 | 29970 ft | 444 kts | 92° |
| 2026-04-21 18:47 | -3.08417 | -58.68796 | 30259 ft | 446 kts | 92° |
| 2026-04-21 18:47 | -3.08523 | -58.65692 | 30563 ft | 447 kts | 92° |
| 2026-04-21 18:48 | -3.08630 | -58.62585 | 30860 ft | 448 kts | 92° |
| 2026-04-21 18:48 | -3.08736 | -58.59465 | 31145 ft | 449 kts | 92° |
| 2026-04-21 18:48 | -3.08843 | -58.56343 | 31420 ft | 450 kts | 92° |
| 2026-04-21 18:48 | -3.08950 | -58.53214 | 31687 ft | 452 kts | 92° |
| 2026-04-21 18:49 | -3.09057 | -58.50072 | 32008 ft | 451 kts | 92° |
| 2026-04-21 18:49 | -3.09164 | -58.46941 | 32420 ft | 449 kts | 92° |
| 2026-04-21 18:49 | -3.09234 | -58.44877 | 32717 ft | 447 kts | 92° |
| 2026-04-21 18:49 | -3.09375 | -58.40714 | 32854 ft | 449 kts | 92° |
| 2026-04-21 18:50 | -3.09480 | -58.37600 | 32891 ft | 447 kts | 92° |
| 2026-04-21 18:50 | -3.09239 | -58.34500 | 32874 ft | 448 kts | 78° |
| 2026-04-21 18:50 | -3.08475 | -58.31488 | 32901 ft | 447 kts | 77° |
| 2026-04-21 18:51 | -3.06930 | -58.25506 | 32882 ft | 444 kts | 77° |
| 2026-04-21 18:51 | -3.06180 | -58.22558 | 32873 ft | 431 kts | 77° |
| 2026-04-21 18:51 | -3.05454 | -58.19663 | 32877 ft | 427 kts | 77° |
| 2026-04-21 18:52 | -3.04027 | -58.13904 | 32894 ft | 427 kts | 78° |
| 2026-04-21 18:52 | -3.02606 | -58.08126 | 32893 ft | 428 kts | 78° |
| 2026-04-21 18:53 | -3.01179 | -58.02328 | 32889 ft | 430 kts | 78° |
| 2026-04-21 18:53 | -2.99748 | -57.96517 | 32885 ft | 430 kts | 78° |
| 2026-04-21 18:54 | -2.98315 | -57.90705 | 32879 ft | 430 kts | 78° |
| 2026-04-21 18:54 | -2.96883 | -57.84898 | 32886 ft | 429 kts | 78° |
| 2026-04-21 18:55 | -2.95686 | -57.80044 | 32882 ft | 429 kts | 78° |
| 2026-04-21 18:55 | -2.94025 | -57.73310 | 32885 ft | 428 kts | 78° |
| 2026-04-21 18:56 | -2.92599 | -57.67528 | 32885 ft | 428 kts | 78° |
| 2026-04-21 18:56 | -2.91174 | -57.61754 | 32886 ft | 428 kts | 78° |
| 2026-04-21 18:57 | -2.89748 | -57.55978 | 32885 ft | 427 kts | 78° |
| 2026-04-21 18:57 | -2.88323 | -57.50204 | 32883 ft | 428 kts | 78° |
| 2026-04-21 18:58 | -2.86896 | -57.44426 | 32884 ft | 428 kts | 78° |
| 2026-04-21 18:58 | -2.85468 | -57.38647 | 32881 ft | 428 kts | 78° |
| 2026-04-21 18:59 | -2.84048 | -57.32900 | 32884 ft | 428 kts | 78° |
| 2026-04-21 18:59 | -2.82619 | -57.27118 | 32882 ft | 428 kts | 78° |
| 2026-04-21 19:00 | -2.81190 | -57.21334 | 32878 ft | 428 kts | 78° |
| 2026-04-21 19:00 | -2.79759 | -57.15549 | 32885 ft | 428 kts | 78° |
| 2026-04-21 19:01 | -2.78331 | -57.09774 | 32882 ft | 428 kts | 78° |
| 2026-04-21 19:01 | -2.76901 | -57.03991 | 32879 ft | 428 kts | 78° |
| 2026-04-21 19:02 | -2.75472 | -56.98213 | 32880 ft | 428 kts | 78° |
| 2026-04-21 19:02 | -2.74040 | -56.92427 | 32878 ft | 428 kts | 78° |
| 2026-04-21 19:03 | -2.72610 | -56.86651 | 32876 ft | 428 kts | 78° |
| 2026-04-21 19:03 | -2.71179 | -56.80867 | 32870 ft | 428 kts | 78° |
| 2026-04-21 19:04 | -2.69745 | -56.75078 | 32886 ft | 429 kts | 78° |
| 2026-04-21 19:04 | -2.68310 | -56.69281 | 32876 ft | 430 kts | 78° |
| 2026-04-21 19:05 | -2.67107 | -56.64423 | 32877 ft | 430 kts | 78° |
| 2026-04-21 19:05 | -2.65986 | -56.58565 | 32716 ft | 429 kts | 84° |
| 2026-04-21 19:05 | -2.65509 | -56.54659 | 32149 ft | 424 kts | 85° |
| 2026-04-21 19:06 | -2.65283 | -56.52680 | 31803 ft | 422 kts | 85° |
| 2026-04-21 19:06 | -2.64951 | -56.49784 | 31338 ft | 418 kts | 85° |
| 2026-04-21 19:06 | -2.64612 | -56.46909 | 30860 ft | 415 kts | 85° |
| 2026-04-21 19:06 | -2.64270 | -56.44082 | 30367 ft | 413 kts | 84° |
| 2026-04-21 19:07 | -2.63917 | -56.41240 | 29864 ft | 411 kts | 84° |
| 2026-04-21 19:07 | -2.63562 | -56.38409 | 29306 ft | 409 kts | 84° |
| 2026-04-21 19:07 | -2.63205 | -56.35598 | 28774 ft | 405 kts | 84° |
| 2026-04-21 19:07 | -2.62851 | -56.32820 | 28254 ft | 402 kts | 84° |
| 2026-04-21 19:08 | -2.62499 | -56.30057 | 27755 ft | 398 kts | 83° |
| 2026-04-21 19:08 | -2.62150 | -56.27317 | 27247 ft | 396 kts | 83° |
| 2026-04-21 19:08 | -2.61803 | -56.24595 | 26752 ft | 393 kts | 83° |
| 2026-04-21 19:08 | -2.61458 | -56.21890 | 26248 ft | 391 kts | 83° |
| 2026-04-21 19:09 | -2.61115 | -56.19195 | 25744 ft | 390 kts | 83° |
| 2026-04-21 19:09 | -2.60773 | -56.16513 | 25233 ft | 389 kts | 83° |
| 2026-04-21 19:09 | -2.60432 | -56.13837 | 24732 ft | 387 kts | 82° |
| 2026-04-21 19:09 | -2.60091 | -56.11164 | 24228 ft | 387 kts | 82° |
| 2026-04-21 19:10 | -2.59751 | -56.08502 | 23728 ft | 386 kts | 82° |
| 2026-04-21 19:10 | -2.59412 | -56.05840 | 23171 ft | 385 kts | 82° |
| 2026-04-21 19:10 | -2.59073 | -56.03189 | 22628 ft | 383 kts | 82° |
| 2026-04-21 19:10 | -2.58737 | -56.00554 | 22114 ft | 380 kts | 82° |
| 2026-04-21 19:11 | -2.58403 | -55.97941 | 21613 ft | 378 kts | 82° |
| 2026-04-21 19:11 | -2.58072 | -55.95345 | 21119 ft | 375 kts | 82° |
| 2026-04-21 19:11 | -2.57743 | -55.92766 | 20619 ft | 373 kts | 82° |
| 2026-04-21 19:11 | -2.57415 | -55.90201 | 20117 ft | 371 kts | 82° |
| 2026-04-21 19:12 | -2.57089 | -55.87649 | 19610 ft | 369 kts | 82° |
| 2026-04-21 19:12 | -2.56764 | -55.85107 | 19113 ft | 368 kts | 82° |
| 2026-04-21 19:12 | -2.56441 | -55.82573 | 18617 ft | 367 kts | 82° |
| 2026-04-21 19:12 | -2.56122 | -55.80081 | 18119 ft | 366 kts | 82° |
| 2026-04-21 19:13 | -2.55800 | -55.77561 | 17553 ft | 364 kts | 82° |
| 2026-04-21 19:13 | -2.55477 | -55.75029 | 17055 ft | 361 kts | 82° |
| 2026-04-21 19:13 | -2.55164 | -55.72581 | 16564 ft | 358 kts | 82° |
| 2026-04-21 19:13 | -2.54849 | -55.70118 | 16076 ft | 356 kts | 82° |
| 2026-04-21 19:14 | -2.54536 | -55.67673 | 15583 ft | 353 kts | 82° |
| 2026-04-21 19:14 | -2.54225 | -55.65246 | 15087 ft | 351 kts | 82° |
| 2026-04-21 19:14 | -2.53915 | -55.62824 | 14593 ft | 350 kts | 82° |
| 2026-04-21 19:14 | -2.53607 | -55.60421 | 14100 ft | 348 kts | 82° |
| 2026-04-21 19:15 | -2.53300 | -55.58019 | 13601 ft | 347 kts | 82° |
| 2026-04-21 19:15 | -2.52995 | -55.55636 | 13067 ft | 345 kts | 83° |
| 2026-04-21 19:15 | -2.52692 | -55.53268 | 12569 ft | 342 kts | 83° |
| 2026-04-21 19:15 | -2.52391 | -55.50921 | 12080 ft | 339 kts | 83° |
| 2026-04-21 19:16 | -2.52092 | -55.48587 | 11586 ft | 337 kts | 83° |
| 2026-04-21 19:16 | -2.51796 | -55.46270 | 11100 ft | 335 kts | 83° |
| 2026-04-21 19:16 | -2.51500 | -55.43966 | 10602 ft | 333 kts | 83° |
| 2026-04-21 19:16 | -2.51207 | -55.41675 | 10237 ft | 328 kts | 83° |
| 2026-04-21 19:17 | -2.50648 | -55.37315 | 9901 ft | 305 kts | 84° |
| 2026-04-21 19:17 | -2.50383 | -55.35250 | 9808 ft | 291 kts | 84° |
| 2026-04-21 19:17 | -2.50125 | -55.33241 | 9248 ft | 296 kts | 84° |
| 2026-04-21 19:18 | -2.49865 | -55.31200 | 8790 ft | 297 kts | 83° |
| 2026-04-21 19:18 | -2.49603 | -55.29156 | 8393 ft | 295 kts | 83° |
| 2026-04-21 19:18 | -2.49343 | -55.27123 | 8018 ft | 294 kts | 84° |
| 2026-04-21 19:18 | -2.49083 | -55.25099 | 7616 ft | 293 kts | 83° |
| 2026-04-21 19:19 | -2.48825 | -55.23085 | 7226 ft | 291 kts | 84° |
| 2026-04-21 19:19 | -2.48568 | -55.21081 | 6849 ft | 290 kts | 84° |
| 2026-04-21 19:19 | -2.48312 | -55.19085 | 6465 ft | 289 kts | 84° |
| 2026-04-21 19:19 | -2.48056 | -55.17090 | 6062 ft | 289 kts | 84° |
| 2026-04-21 19:20 | -2.47801 | -55.15105 | 5675 ft | 287 kts | 84° |
| 2026-04-21 19:20 | -2.47548 | -55.13132 | 5277 ft | 285 kts | 84° |
| 2026-04-21 19:20 | -2.47296 | -55.11169 | 4904 ft | 284 kts | 84° |
| 2026-04-21 19:20 | -2.47046 | -55.09225 | 4527 ft | 279 kts | 84° |
| 2026-04-21 19:21 | -2.46802 | -55.07326 | 4250 ft | 269 kts | 84° |
| 2026-04-21 19:21 | -2.46552 | -55.05541 | 4184 ft | 250 kts | 83° |
| 2026-04-21 19:21 | -2.46276 | -55.03887 | 4073 ft | 231 kts | 82° |
| 2026-04-21 19:21 | -2.45977 | -55.02363 | 3942 ft | 216 kts | 79° |
| 2026-04-21 19:22 | -2.45688 | -55.00938 | 3822 ft | 201 kts | 82° |
| 2026-04-21 19:22 | -2.45459 | -54.99615 | 3723 ft | 185 kts | 82° |
| 2026-04-21 19:22 | -2.45261 | -54.98395 | 3677 ft | 177 kts | 82° |
| 2026-04-21 19:22 | -2.45064 | -54.97148 | 3436 ft | 181 kts | 82° |
| 2026-04-21 19:23 | -2.44868 | -54.95914 | 3195 ft | 177 kts | 82° |
| 2026-04-21 19:23 | -2.44679 | -54.94720 | 2965 ft | 172 kts | 83° |
| 2026-04-21 19:23 | -2.44495 | -54.93559 | 2751 ft | 168 kts | 83° |
| 2026-04-21 19:23 | -2.44310 | -54.92390 | 2528 ft | 172 kts | 83° |
| 2026-04-21 19:24 | -2.44123 | -54.91203 | 2326 ft | 174 kts | 82° |
| 2026-04-21 19:24 | -2.43933 | -54.90007 | 2086 ft | 172 kts | 83° |
| 2026-04-21 19:24 | -2.43749 | -54.88850 | 1847 ft | 166 kts | 82° |
| 2026-04-21 19:24 | -2.43571 | -54.87729 | 1671 ft | 160 kts | 83° |
| 2026-04-21 19:25 | -2.43399 | -54.86633 | 1382 ft | 155 kts | 84° |
| 2026-04-21 19:25 | -2.43242 | -54.85640 | 1194 ft | 139 kts | 83° |
| 2026-04-21 19:25 | -2.43090 | -54.84678 | 1062 ft | 142 kts | 84° |
| 2026-04-21 19:25 | -2.42935 | -54.83698 | 875 ft | 141 kts | 82° |
| 2026-04-21 19:26 | -2.42782 | -54.82736 | 685 ft | 138 kts | 80° |
| 2026-04-21 19:26 | -2.42632 | -54.81788 | 518 ft | 137 kts | 80° |
| 2026-04-21 19:26 | -2.42489 | -54.80828 | 336 ft | 142 kts | 79° |
| 2026-04-21 19:26 | -2.42330 | -54.79839 | 210 ft | 143 kts | 79° |
| 2026-04-21 19:27 | -2.42190 | -54.78989 | 191 ft | 97 kts | 81° |
| 2026-04-21 19:27 | -2.42118 | -54.78548 | 190 ft | 47 kts | 81° |
| 2026-04-21 19:27 | -2.42092 | -54.78383 | 191 ft | 19 kts | 81° |
| 2026-04-21 19:27 | -2.42080 | -54.78254 | 190 ft | 19 kts | 109° |
| 2026-04-21 19:28 | -2.42183 | -54.78254 | 196 ft | 15 kts | 207° |
| 2026-04-21 19:28 | -2.42274 | -54.78300 | 195 ft | 14 kts | 207° |
| 2026-04-21 19:28 | -2.42309 | -54.78346 | 190 ft | 7 kts | 280° |
| 2026-04-21 19:28 | -2.42300 | -54.78400 | 198 ft | 9 kts | 274° |
| 2026-04-21 19:29 | -2.42305 | -54.78466 | 197 ft | 10 kts | 256° |
| 2026-04-21 19:29 | -2.42333 | -54.78530 | 195 ft | 9 kts | 238° |
| 2026-04-21 19:29 | -2.42342 | -54.78551 | 195 ft | 3 kts | 275° |
| 2026-04-21 19:29 | -2.42329 | -54.78568 | 198 ft | 3 kts | 318° |
| 2026-04-21 19:30 | -2.42328 | -54.78569 | 197 ft | 0 kts | 318° |